sensor_id;sensor_type;location;lat;lon;timestamp;temperature;humidity
9925;DHT22;5001;51.674;7.868;2023-10-08T00:00:45;18.80;99.90
9925;DHT22;5001;51.674;7.868;2023-10-08T00:03:23;18.80;99.90
9925;DHT22;5001;51.674;7.868;2023-10-08T00:05:56;18.90;99.90
9925;DHT22;5001;51.674;7.868;2023-10-08T00:08:23;18.80;99.90
9925;DHT22;5001;51.674;7.868;2023-10-08T00:10:50;18.80;99.90
9925;DHT22;5001;51.674;7.868;2023-10-08T00:13:18;18.80;99.90
9925;DHT22;5001;51.674;7.868;2023-10-08T00:15:45;18.70;99.90
9925;DHT22;5001;51.674;7.868;2023-10-08T00:18:23;18.70;99.90
9925;DHT22;5001;51.674;7.868;2023-10-08T00:20:50;18.70;99.90
9925;DHT22;5001;51.674;7.868;2023-10-08T00:23:37;18.70;99.90
9925;DHT22;5001;51.674;7.868;2023-10-08T00:26:09;18.70;99.90
9925;DHT22;5001;51.674;7.868;2023-10-08T00:28:36;18.70;99.90
9925;DHT22;5001;51.674;7.868;2023-10-08T00:31:03;18.70;99.90
9925;DHT22;5001;51.674;7.868;2023-10-08T00:33:38;18.60;99.90
9925;DHT22;5001;51.674;7.868;2023-10-08T00:36:06;18.70;99.90
9925;DHT22;5001;51.674;7.868;2023-10-08T00:38:55;18.70;99.90
9925;DHT22;5001;51.674;7.868;2023-10-08T00:41:27;18.70;99.90
9925;DHT22;5001;51.674;7.868;2023-10-08T00:44:00;18.60;99.90
9925;DHT22;5001;51.674;7.868;2023-10-08T00:46:28;18.60;99.90
9925;DHT22;5001;51.674;7.868;2023-10-08T00:49:01;18.60;99.90
9925;DHT22;5001;51.674;7.868;2023-10-08T00:51:56;18.60;99.90
9925;DHT22;5001;51.674;7.868;2023-10-08T00:54:37;18.70;99.90
9925;DHT22;5001;51.674;7.868;2023-10-08T00:57:29;18.70;99.90
9925;DHT22;5001;51.674;7.868;2023-10-08T00:59:57;18.80;99.90
9925;DHT22;5001;51.674;7.868;2023-10-08T01:02:27;18.80;99.90
9925;DHT22;5001;51.674;7.868;2023-10-08T01:04:56;18.70;99.90
9925;DHT22;5001;51.674;7.868;2023-10-08T01:07:23;18.60;99.90
9925;DHT22;5001;51.674;7.868;2023-10-08T01:09:51;18.60;99.90
9925;DHT22;5001;51.674;7.868;2023-10-08T01:12:23;18.60;99.90
9925;DHT22;5001;51.674;7.868;2023-10-08T01:15:01;18.60;99.90
9925;DHT22;5001;51.674;7.868;2023-10-08T01:17:45;18.60;99.90
9925;DHT22;5001;51.674;7.868;2023-10-08T01:20:18;18.60;99.90
9925;DHT22;5001;51.674;7.868;2023-10-08T01:23:11;18.60;99.90
9925;DHT22;5001;51.674;7.868;2023-10-08T01:25:40;18.60;99.90
9925;DHT22;5001;51.674;7.868;2023-10-08T01:28:09;18.60;99.90
9925;DHT22;5001;51.674;7.868;2023-10-08T01:30:59;18.60;99.90
9925;DHT22;5001;51.674;7.868;2023-10-08T01:33:27;18.60;99.90
9925;DHT22;5001;51.674;7.868;2023-10-08T01:35:55;18.60;99.90
9925;DHT22;5001;51.674;7.868;2023-10-08T01:38:31;18.60;99.90
9925;DHT22;5001;51.674;7.868;2023-10-08T01:40:59;18.60;99.90
9925;DHT22;5001;51.674;7.868;2023-10-08T01:43:32;18.60;99.90
9925;DHT22;5001;51.674;7.868;2023-10-08T01:46:02;18.60;99.90
9925;DHT22;5001;51.674;7.868;2023-10-08T01:48:30;18.60;99.90
9925;DHT22;5001;51.674;7.868;2023-10-08T01:51:04;18.50;99.90
9925;DHT22;5001;51.674;7.868;2023-10-08T01:53:38;18.60;99.90
9925;DHT22;5001;51.674;7.868;2023-10-08T01:56:05;18.60;99.90
9925;DHT22;5001;51.674;7.868;2023-10-08T01:58:33;18.60;99.90
9925;DHT22;5001;51.674;7.868;2023-10-08T02:05:02;18.70;99.90
9925;DHT22;5001;51.674;7.868;2023-10-08T02:07:31;18.60;99.90
9925;DHT22;5001;51.674;7.868;2023-10-08T02:09:58;18.60;99.90
9925;DHT22;5001;51.674;7.868;2023-10-08T02:12:24;18.50;99.90
9925;DHT22;5001;51.674;7.868;2023-10-08T02:14:52;18.40;99.90
9925;DHT22;5001;51.674;7.868;2023-10-08T02:17:22;18.40;99.90
9925;DHT22;5001;51.674;7.868;2023-10-08T02:19:53;18.50;99.90
9925;DHT22;5001;51.674;7.868;2023-10-08T02:22:20;18.40;99.90
9925;DHT22;5001;51.674;7.868;2023-10-08T02:24:46;18.50;99.90
9925;DHT22;5001;51.674;7.868;2023-10-08T02:27:14;18.30;99.90
9925;DHT22;5001;51.674;7.868;2023-10-08T02:29:42;18.30;99.90
9925;DHT22;5001;51.674;7.868;2023-10-08T02:32:09;18.20;99.90
9925;DHT22;5001;51.674;7.868;2023-10-08T02:34:36;18.10;99.90
9925;DHT22;5001;51.674;7.868;2023-10-08T02:37:03;18.00;99.90
9925;DHT22;5001;51.674;7.868;2023-10-08T02:39:30;17.90;99.90
9925;DHT22;5001;51.674;7.868;2023-10-08T02:41:58;18.00;99.90
9925;DHT22;5001;51.674;7.868;2023-10-08T02:44:27;18.00;99.90
9925;DHT22;5001;51.674;7.868;2023-10-08T02:46:55;18.00;99.90
9925;DHT22;5001;51.674;7.868;2023-10-08T02:49:22;18.00;99.90
9925;DHT22;5001;51.674;7.868;2023-10-08T02:51:54;18.00;99.90
9925;DHT22;5001;51.674;7.868;2023-10-08T02:54:22;18.10;99.90
9925;DHT22;5001;51.674;7.868;2023-10-08T02:56:52;18.10;99.90
9925;DHT22;5001;51.674;7.868;2023-10-08T02:59:22;18.10;99.90
9925;DHT22;5001;51.674;7.868;2023-10-08T03:01:49;18.10;99.90
9925;DHT22;5001;51.674;7.868;2023-10-08T03:04:17;18.00;99.90
9925;DHT22;5001;51.674;7.868;2023-10-08T03:06:57;18.00;99.90
9925;DHT22;5001;51.674;7.868;2023-10-08T03:09:24;17.90;99.90
9925;DHT22;5001;51.674;7.868;2023-10-08T03:11:56;18.00;99.90
9925;DHT22;5001;51.674;7.868;2023-10-08T03:14:25;18.00;99.90
9925;DHT22;5001;51.674;7.868;2023-10-08T03:17:09;18.00;99.90
9925;DHT22;5001;51.674;7.868;2023-10-08T03:19:36;18.00;99.90
9925;DHT22;5001;51.674;7.868;2023-10-08T03:22:05;18.00;99.90
9925;DHT22;5001;51.674;7.868;2023-10-08T03:24:32;18.10;99.90
9925;DHT22;5001;51.674;7.868;2023-10-08T03:27:02;18.00;99.90
9925;DHT22;5001;51.674;7.868;2023-10-08T03:29:55;18.00;99.90
9925;DHT22;5001;51.674;7.868;2023-10-08T03:32:25;17.90;99.90
9925;DHT22;5001;51.674;7.868;2023-10-08T03:34:53;17.90;99.90
9925;DHT22;5001;51.674;7.868;2023-10-08T03:37:22;17.90;99.90
9925;DHT22;5001;51.674;7.868;2023-10-08T03:39:56;17.90;99.90
9925;DHT22;5001;51.674;7.868;2023-10-08T03:42:46;18.00;99.90
9925;DHT22;5001;51.674;7.868;2023-10-08T03:45:16;18.10;99.90
9925;DHT22;5001;51.674;7.868;2023-10-08T03:47:49;18.00;99.90
9925;DHT22;5001;51.674;7.868;2023-10-08T03:50:33;18.00;99.90
9925;DHT22;5001;51.674;7.868;2023-10-08T03:53:08;17.80;99.90
9925;DHT22;5001;51.674;7.868;2023-10-08T03:55:43;17.80;99.90
9925;DHT22;5001;51.674;7.868;2023-10-08T03:58:10;17.80;99.90
9925;DHT22;5001;51.674;7.868;2023-10-08T04:00:44;17.80;99.90
9925;DHT22;5001;51.674;7.868;2023-10-08T04:03:12;17.80;99.90
9925;DHT22;5001;51.674;7.868;2023-10-08T04:05:39;18.00;99.90
9925;DHT22;5001;51.674;7.868;2023-10-08T04:08:26;18.10;99.90
9925;DHT22;5001;51.674;7.868;2023-10-08T04:11:21;18.30;99.90
9925;DHT22;5001;51.674;7.868;2023-10-08T04:14:02;18.20;99.90
9925;DHT22;5001;51.674;7.868;2023-10-08T04:16:31;18.00;99.90
9925;DHT22;5001;51.674;7.868;2023-10-08T04:18:58;17.60;99.90
9925;DHT22;5001;51.674;7.868;2023-10-08T04:21:30;17.20;99.90
9925;DHT22;5001;51.674;7.868;2023-10-08T04:24:01;17.00;99.90
9925;DHT22;5001;51.674;7.868;2023-10-08T04:26:30;16.90;99.90
9925;DHT22;5001;51.674;7.868;2023-10-08T04:29:00;17.00;99.90
9925;DHT22;5001;51.674;7.868;2023-10-08T04:31:33;17.30;99.90
9925;DHT22;5001;51.674;7.868;2023-10-08T04:34:05;17.00;99.90
9925;DHT22;5001;51.674;7.868;2023-10-08T04:36:52;16.80;99.90
9925;DHT22;5001;51.674;7.868;2023-10-08T04:39:24;16.60;99.90
9925;DHT22;5001;51.674;7.868;2023-10-08T04:42:01;16.60;99.90
9925;DHT22;5001;51.674;7.868;2023-10-08T04:44:39;16.40;99.90
9925;DHT22;5001;51.674;7.868;2023-10-08T04:47:07;16.20;99.90
9925;DHT22;5001;51.674;7.868;2023-10-08T04:49:35;15.90;99.90
9925;DHT22;5001;51.674;7.868;2023-10-08T04:52:12;15.70;99.90
9925;DHT22;5001;51.674;7.868;2023-10-08T04:54:42;15.40;99.90
9925;DHT22;5001;51.674;7.868;2023-10-08T04:57:19;15.70;99.90
9925;DHT22;5001;51.674;7.868;2023-10-08T04:59:50;16.10;99.90
9925;DHT22;5001;51.674;7.868;2023-10-08T05:02:18;16.40;99.90
9925;DHT22;5001;51.674;7.868;2023-10-08T05:05:16;16.40;99.90
9925;DHT22;5001;51.674;7.868;2023-10-08T05:07:43;16.00;99.90
9925;DHT22;5001;51.674;7.868;2023-10-08T05:10:15;15.80;99.90
9925;DHT22;5001;51.674;7.868;2023-10-08T05:12:53;15.90;99.90
9925;DHT22;5001;51.674;7.868;2023-10-08T05:15:30;15.90;99.90
9925;DHT22;5001;51.674;7.868;2023-10-08T05:18:08;16.30;99.90
9925;DHT22;5001;51.674;7.868;2023-10-08T05:20:41;16.40;99.90
9925;DHT22;5001;51.674;7.868;2023-10-08T05:23:18;16.40;99.90
9925;DHT22;5001;51.674;7.868;2023-10-08T05:25:53;16.20;99.90
9925;DHT22;5001;51.674;7.868;2023-10-08T05:28:34;16.10;99.90
9925;DHT22;5001;51.674;7.868;2023-10-08T05:31:09;16.10;99.90
9925;DHT22;5001;51.674;7.868;2023-10-08T05:33:42;16.20;99.90
9925;DHT22;5001;51.674;7.868;2023-10-08T05:36:12;16.20;99.90
9925;DHT22;5001;51.674;7.868;2023-10-08T05:38:45;15.70;99.90
9925;DHT22;5001;51.674;7.868;2023-10-08T05:41:17;15.20;99.90
9925;DHT22;5001;51.674;7.868;2023-10-08T05:44:08;14.90;99.90
9925;DHT22;5001;51.674;7.868;2023-10-08T05:46:41;14.60;99.90
9925;DHT22;5001;51.674;7.868;2023-10-08T05:49:23;14.50;99.90
9925;DHT22;5001;51.674;7.868;2023-10-08T05:52:05;14.60;99.90
9925;DHT22;5001;51.674;7.868;2023-10-08T05:54:33;14.90;99.90
9925;DHT22;5001;51.674;7.868;2023-10-08T05:57:04;14.80;99.90
9925;DHT22;5001;51.674;7.868;2023-10-08T06:02:43;14.60;99.90
9925;DHT22;5001;51.674;7.868;2023-10-08T06:05:13;14.60;99.90
9925;DHT22;5001;51.674;7.868;2023-10-08T06:07:43;14.70;99.90
9925;DHT22;5001;51.674;7.868;2023-10-08T06:10:29;14.40;99.90
9925;DHT22;5001;51.674;7.868;2023-10-08T06:13:05;14.50;99.90
9925;DHT22;5001;51.674;7.868;2023-10-08T06:15:57;14.60;99.90
9925;DHT22;5001;51.674;7.868;2023-10-08T06:21:02;14.50;99.90
9925;DHT22;5001;51.674;7.868;2023-10-08T06:23:39;14.80;99.90
9925;DHT22;5001;51.674;7.868;2023-10-08T06:26:06;14.50;99.90
9925;DHT22;5001;51.674;7.868;2023-10-08T06:28:44;14.50;99.90
9925;DHT22;5001;51.674;7.868;2023-10-08T06:31:11;14.50;99.90
9925;DHT22;5001;51.674;7.868;2023-10-08T06:33:40;14.50;99.90
9925;DHT22;5001;51.674;7.868;2023-10-08T06:36:08;14.70;99.90
9925;DHT22;5001;51.674;7.868;2023-10-08T06:38:47;14.70;99.90
9925;DHT22;5001;51.674;7.868;2023-10-08T06:41:17;14.80;99.90
9925;DHT22;5001;51.674;7.868;2023-10-08T06:44:04;14.90;99.90
9925;DHT22;5001;51.674;7.868;2023-10-08T06:46:41;14.90;99.90
9925;DHT22;5001;51.674;7.868;2023-10-08T06:49:09;14.30;99.90
9925;DHT22;5001;51.674;7.868;2023-10-08T06:51:42;14.00;99.90
9925;DHT22;5001;51.674;7.868;2023-10-08T06:54:12;13.80;99.90
9925;DHT22;5001;51.674;7.868;2023-10-08T06:56:44;13.70;99.90
9925;DHT22;5001;51.674;7.868;2023-10-08T06:59:19;13.70;99.90
9925;DHT22;5001;51.674;7.868;2023-10-08T07:01:51;13.60;99.90
9925;DHT22;5001;51.674;7.868;2023-10-08T07:04:19;13.80;1.00
9925;DHT22;5001;51.674;7.868;2023-10-08T07:06:50;13.60;1.00
9925;DHT22;5001;51.674;7.868;2023-10-08T07:09:18;13.50;99.90
9925;DHT22;5001;51.674;7.868;2023-10-08T07:12:11;13.00;99.90
9925;DHT22;5001;51.674;7.868;2023-10-08T07:14:41;12.80;1.00
9925;DHT22;5001;51.674;7.868;2023-10-08T07:17:08;12.60;1.00
9925;DHT22;5001;51.674;7.868;2023-10-08T07:19:41;12.50;1.00
9925;DHT22;5001;51.674;7.868;2023-10-08T07:22:14;12.70;1.00
9925;DHT22;5001;51.674;7.868;2023-10-08T07:24:53;12.60;1.00
9925;DHT22;5001;51.674;7.868;2023-10-08T07:27:20;12.70;1.00
9925;DHT22;5001;51.674;7.868;2023-10-08T07:29:57;12.70;99.90
9925;DHT22;5001;51.674;7.868;2023-10-08T07:32:30;12.60;1.00
9925;DHT22;5001;51.674;7.868;2023-10-08T07:34:58;12.40;1.00
9925;DHT22;5001;51.674;7.868;2023-10-08T07:37:42;12.50;1.00
9925;DHT22;5001;51.674;7.868;2023-10-08T07:40:10;12.40;1.00
9925;DHT22;5001;51.674;7.868;2023-10-08T07:42:39;12.40;1.00
9925;DHT22;5001;51.674;7.868;2023-10-08T07:45:06;12.40;1.00
9925;DHT22;5001;51.674;7.868;2023-10-08T07:47:34;12.40;99.90
9925;DHT22;5001;51.674;7.868;2023-10-08T07:50:02;12.50;1.00
9925;DHT22;5001;51.674;7.868;2023-10-08T07:52:38;12.40;1.00
9925;DHT22;5001;51.674;7.868;2023-10-08T07:55:06;12.50;1.00
9925;DHT22;5001;51.674;7.868;2023-10-08T07:57:34;12.50;1.00
9925;DHT22;5001;51.674;7.868;2023-10-08T08:00:01;12.60;1.00
9925;DHT22;5001;51.674;7.868;2023-10-08T08:02:45;12.50;1.00
9925;DHT22;5001;51.674;7.868;2023-10-08T08:05:12;12.50;1.00
9925;DHT22;5001;51.674;7.868;2023-10-08T08:07:44;12.40;1.00
9925;DHT22;5001;51.674;7.868;2023-10-08T08:10:16;12.50;1.00
9925;DHT22;5001;51.674;7.868;2023-10-08T08:12:45;12.30;1.00
9925;DHT22;5001;51.674;7.868;2023-10-08T08:15:12;12.40;1.00
9925;DHT22;5001;51.674;7.868;2023-10-08T08:17:43;12.30;1.00
9925;DHT22;5001;51.674;7.868;2023-10-08T08:20:14;12.30;1.00
9925;DHT22;5001;51.674;7.868;2023-10-08T08:23:01;12.40;1.00
9925;DHT22;5001;51.674;7.868;2023-10-08T08:25:40;12.40;1.00
9925;DHT22;5001;51.674;7.868;2023-10-08T08:28:43;12.40;1.00
9925;DHT22;5001;51.674;7.868;2023-10-08T08:31:14;12.40;1.00
9925;DHT22;5001;51.674;7.868;2023-10-08T08:33:41;12.40;1.00
9925;DHT22;5001;51.674;7.868;2023-10-08T08:36:24;12.60;1.00
9925;DHT22;5001;51.674;7.868;2023-10-08T08:38:51;12.60;1.00
9925;DHT22;5001;51.674;7.868;2023-10-08T08:41:22;12.60;1.00
9925;DHT22;5001;51.674;7.868;2023-10-08T08:43:51;12.60;1.00
9925;DHT22;5001;51.674;7.868;2023-10-08T08:46:33;12.60;99.90
9925;DHT22;5001;51.674;7.868;2023-10-08T08:49:06;12.50;99.90
9925;DHT22;5001;51.674;7.868;2023-10-08T08:51:38;12.30;99.90
9925;DHT22;5001;51.674;7.868;2023-10-08T08:54:06;12.60;99.90
9925;DHT22;5001;51.674;7.868;2023-10-08T08:56:34;12.70;99.90
9925;DHT22;5001;51.674;7.868;2023-10-08T08:59:04;12.70;99.90
9925;DHT22;5001;51.674;7.868;2023-10-08T09:01:32;12.50;99.90
9925;DHT22;5001;51.674;7.868;2023-10-08T09:04:00;12.60;99.90
9925;DHT22;5001;51.674;7.868;2023-10-08T09:06:36;12.80;99.90
9925;DHT22;5001;51.674;7.868;2023-10-08T09:09:07;13.10;99.90
9925;DHT22;5001;51.674;7.868;2023-10-08T09:11:50;13.20;99.90
9925;DHT22;5001;51.674;7.868;2023-10-08T09:14:22;13.00;99.90
9925;DHT22;5001;51.674;7.868;2023-10-08T09:16:56;12.80;99.90
9925;DHT22;5001;51.674;7.868;2023-10-08T09:19:26;12.90;99.90
9925;DHT22;5001;51.674;7.868;2023-10-08T09:22:09;12.90;99.90
9925;DHT22;5001;51.674;7.868;2023-10-08T09:24:39;13.00;99.90
9925;DHT22;5001;51.674;7.868;2023-10-08T09:27:08;12.90;99.90
9925;DHT22;5001;51.674;7.868;2023-10-08T09:29:36;12.80;99.90
9925;DHT22;5001;51.674;7.868;2023-10-08T09:32:12;13.10;99.90
9925;DHT22;5001;51.674;7.868;2023-10-08T09:34:52;13.30;99.90
9925;DHT22;5001;51.674;7.868;2023-10-08T09:37:19;13.70;99.90
9925;DHT22;5001;51.674;7.868;2023-10-08T09:39:49;13.50;99.90
9925;DHT22;5001;51.674;7.868;2023-10-08T09:42:19;13.50;99.90
9925;DHT22;5001;51.674;7.868;2023-10-08T09:44:49;13.70;99.90
9925;DHT22;5001;51.674;7.868;2023-10-08T09:47:21;13.50;99.90
9925;DHT22;5001;51.674;7.868;2023-10-08T09:49:59;13.40;99.90
9925;DHT22;5001;51.674;7.868;2023-10-08T09:52:36;13.80;99.90
9925;DHT22;5001;51.674;7.868;2023-10-08T09:55:09;13.80;99.90
9925;DHT22;5001;51.674;7.868;2023-10-08T09:57:39;14.30;99.90
9925;DHT22;5001;51.674;7.868;2023-10-08T10:00:07;14.40;99.90
9925;DHT22;5001;51.674;7.868;2023-10-08T10:02:42;14.70;99.90
9925;DHT22;5001;51.674;7.868;2023-10-08T10:05:19;15.00;99.90
9925;DHT22;5001;51.674;7.868;2023-10-08T10:07:55;15.30;99.90
9925;DHT22;5001;51.674;7.868;2023-10-08T10:10:26;15.20;99.90
9925;DHT22;5001;51.674;7.868;2023-10-08T10:12:59;15.20;99.90
9925;DHT22;5001;51.674;7.868;2023-10-08T10:15:27;15.10;99.90
9925;DHT22;5001;51.674;7.868;2023-10-08T10:18:08;15.30;99.90
9925;DHT22;5001;51.674;7.868;2023-10-08T10:20:40;15.50;99.90
9925;DHT22;5001;51.674;7.868;2023-10-08T10:23:37;15.30;99.90
9925;DHT22;5001;51.674;7.868;2023-10-08T10:26:05;15.30;99.90
9925;DHT22;5001;51.674;7.868;2023-10-08T10:28:36;15.10;99.90
9925;DHT22;5001;51.674;7.868;2023-10-08T10:31:04;15.00;99.90
9925;DHT22;5001;51.674;7.868;2023-10-08T10:33:32;14.90;99.90
9925;DHT22;5001;51.674;7.868;2023-10-08T10:36:04;15.00;99.90
9925;DHT22;5001;51.674;7.868;2023-10-08T10:38:35;14.90;99.90
9925;DHT22;5001;51.674;7.868;2023-10-08T10:41:03;14.70;99.90
9925;DHT22;5001;51.674;7.868;2023-10-08T10:43:35;14.90;99.90
9925;DHT22;5001;51.674;7.868;2023-10-08T10:46:06;15.00;99.90
9925;DHT22;5001;51.674;7.868;2023-10-08T10:48:58;15.30;99.90
9925;DHT22;5001;51.674;7.868;2023-10-08T10:51:47;15.40;99.90
9925;DHT22;5001;51.674;7.868;2023-10-08T10:54:16;15.60;99.90
9925;DHT22;5001;51.674;7.868;2023-10-08T10:56:51;16.00;99.90
9925;DHT22;5001;51.674;7.868;2023-10-08T10:59:34;16.00;99.90
9925;DHT22;5001;51.674;7.868;2023-10-08T11:02:08;16.20;99.90
9925;DHT22;5001;51.674;7.868;2023-10-08T11:04:36;16.40;99.90
9925;DHT22;5001;51.674;7.868;2023-10-08T11:07:16;16.70;99.90
9925;DHT22;5001;51.674;7.868;2023-10-08T11:09:44;16.70;99.90
9925;DHT22;5001;51.674;7.868;2023-10-08T11:12:13;17.20;99.90
9925;DHT22;5001;51.674;7.868;2023-10-08T11:14:49;17.60;99.90
9925;DHT22;5001;51.674;7.868;2023-10-08T11:17:26;17.40;99.90
9925;DHT22;5001;51.674;7.868;2023-10-08T11:19:54;16.90;99.90
9925;DHT22;5001;51.674;7.868;2023-10-08T11:22:21;16.70;99.90
9925;DHT22;5001;51.674;7.868;2023-10-08T11:24:50;16.40;99.90
9925;DHT22;5001;51.674;7.868;2023-10-08T11:27:24;16.30;99.90
9925;DHT22;5001;51.674;7.868;2023-10-08T11:30:03;16.60;99.90
9925;DHT22;5001;51.674;7.868;2023-10-08T11:32:38;16.40;99.90
9925;DHT22;5001;51.674;7.868;2023-10-08T11:35:15;16.00;99.90
9925;DHT22;5001;51.674;7.868;2023-10-08T11:37:47;15.70;99.90
9925;DHT22;5001;51.674;7.868;2023-10-08T11:40:25;15.70;99.90
9925;DHT22;5001;51.674;7.868;2023-10-08T11:42:57;15.90;99.90
9925;DHT22;5001;51.674;7.868;2023-10-08T11:45:26;16.20;99.90
9925;DHT22;5001;51.674;7.868;2023-10-08T11:47:54;16.40;99.90
9925;DHT22;5001;51.674;7.868;2023-10-08T11:50:30;16.20;99.90
9925;DHT22;5001;51.674;7.868;2023-10-08T11:53:02;16.30;99.90
9925;DHT22;5001;51.674;7.868;2023-10-08T11:55:34;16.30;99.90
9925;DHT22;5001;51.674;7.868;2023-10-08T11:58:04;16.60;99.90
9925;DHT22;5001;51.674;7.868;2023-10-08T12:00:42;17.20;99.90
9925;DHT22;5001;51.674;7.868;2023-10-08T12:03:16;17.00;99.90
9925;DHT22;5001;51.674;7.868;2023-10-08T12:05:50;17.10;99.90
9925;DHT22;5001;51.674;7.868;2023-10-08T12:08:28;17.60;99.90
9925;DHT22;5001;51.674;7.868;2023-10-08T12:10:55;17.40;99.90
9925;DHT22;5001;51.674;7.868;2023-10-08T12:13:22;17.20;99.90
9925;DHT22;5001;51.674;7.868;2023-10-08T12:15:55;17.00;99.90
9925;DHT22;5001;51.674;7.868;2023-10-08T12:18:48;16.90;99.90
9925;DHT22;5001;51.674;7.868;2023-10-08T12:21:16;16.90;99.90
9925;DHT22;5001;51.674;7.868;2023-10-08T12:23:44;16.80;99.90
9925;DHT22;5001;51.674;7.868;2023-10-08T12:26:14;16.50;99.90
9925;DHT22;5001;51.674;7.868;2023-10-08T12:28:47;17.00;99.90
9925;DHT22;5001;51.674;7.868;2023-10-08T12:31:21;17.30;99.90
9925;DHT22;5001;51.674;7.868;2023-10-08T12:33:53;17.50;99.90
9925;DHT22;5001;51.674;7.868;2023-10-08T12:36:23;17.20;99.90
9925;DHT22;5001;51.674;7.868;2023-10-08T12:38:51;17.20;99.90
9925;DHT22;5001;51.674;7.868;2023-10-08T12:41:25;17.40;99.90
9925;DHT22;5001;51.674;7.868;2023-10-08T12:43:55;17.20;99.90
9925;DHT22;5001;51.674;7.868;2023-10-08T12:46:27;17.40;99.90
9925;DHT22;5001;51.674;7.868;2023-10-08T12:48:57;17.70;99.90
9925;DHT22;5001;51.674;7.868;2023-10-08T12:51:28;17.70;99.90
9925;DHT22;5001;51.674;7.868;2023-10-08T12:54:00;17.50;99.90
9925;DHT22;5001;51.674;7.868;2023-10-08T12:56:35;17.70;99.90
9925;DHT22;5001;51.674;7.868;2023-10-08T12:59:03;17.00;99.90
9925;DHT22;5001;51.674;7.868;2023-10-08T13:01:34;16.70;99.90
9925;DHT22;5001;51.674;7.868;2023-10-08T13:04:03;16.80;99.90
9925;DHT22;5001;51.674;7.868;2023-10-08T13:06:35;16.70;99.90
9925;DHT22;5001;51.674;7.868;2023-10-08T13:09:05;16.20;99.90
9925;DHT22;5001;51.674;7.868;2023-10-08T13:11:40;16.00;99.90
9925;DHT22;5001;51.674;7.868;2023-10-08T13:14:07;16.10;99.90
9925;DHT22;5001;51.674;7.868;2023-10-08T13:16:34;16.30;99.90
9925;DHT22;5001;51.674;7.868;2023-10-08T13:19:04;16.50;99.90
9925;DHT22;5001;51.674;7.868;2023-10-08T13:21:35;16.70;99.90
9925;DHT22;5001;51.674;7.868;2023-10-08T13:24:04;16.80;99.90
9925;DHT22;5001;51.674;7.868;2023-10-08T13:26:36;16.70;99.90
9925;DHT22;5001;51.674;7.868;2023-10-08T13:29:07;16.90;99.90
9925;DHT22;5001;51.674;7.868;2023-10-08T13:31:37;17.20;99.90
9925;DHT22;5001;51.674;7.868;2023-10-08T13:34:04;17.70;99.90
9925;DHT22;5001;51.674;7.868;2023-10-08T13:36:36;17.70;99.90
9925;DHT22;5001;51.674;7.868;2023-10-08T13:39:05;17.10;99.90
9925;DHT22;5001;51.674;7.868;2023-10-08T13:41:37;16.80;99.90
9925;DHT22;5001;51.674;7.868;2023-10-08T13:44:06;17.10;99.90
9925;DHT22;5001;51.674;7.868;2023-10-08T13:46:33;17.00;99.90
9925;DHT22;5001;51.674;7.868;2023-10-08T13:49:03;16.80;99.90
9925;DHT22;5001;51.674;7.868;2023-10-08T13:51:33;16.50;99.90
9925;DHT22;5001;51.674;7.868;2023-10-08T13:54:02;16.50;99.90
9925;DHT22;5001;51.674;7.868;2023-10-08T13:56:33;16.70;99.90
9925;DHT22;5001;51.674;7.868;2023-10-08T13:59:00;16.70;99.90
9925;DHT22;5001;51.674;7.868;2023-10-08T14:01:33;16.70;99.90
9925;DHT22;5001;51.674;7.868;2023-10-08T14:04:02;16.80;99.90
9925;DHT22;5001;51.674;7.868;2023-10-08T14:06:34;16.80;99.90
9925;DHT22;5001;51.674;7.868;2023-10-08T14:09:02;16.50;99.90
9925;DHT22;5001;51.674;7.868;2023-10-08T14:11:34;16.50;99.90
9925;DHT22;5001;51.674;7.868;2023-10-08T14:14:01;16.80;99.90
9925;DHT22;5001;51.674;7.868;2023-10-08T14:16:35;16.80;99.90
9925;DHT22;5001;51.674;7.868;2023-10-08T14:19:02;16.40;99.90
9925;DHT22;5001;51.674;7.868;2023-10-08T14:21:31;16.30;99.90
9925;DHT22;5001;51.674;7.868;2023-10-08T14:24:04;16.20;99.90
9925;DHT22;5001;51.674;7.868;2023-10-08T14:26:33;16.20;99.90
9925;DHT22;5001;51.674;7.868;2023-10-08T14:29:03;16.10;99.90
9925;DHT22;5001;51.674;7.868;2023-10-08T14:31:44;16.30;99.90
9925;DHT22;5001;51.674;7.868;2023-10-08T14:34:16;16.20;99.90
9925;DHT22;5001;51.674;7.868;2023-10-08T14:36:47;16.30;99.90
9925;DHT22;5001;51.674;7.868;2023-10-08T14:39:33;16.30;99.90
9925;DHT22;5001;51.674;7.868;2023-10-08T14:42:26;16.10;99.90
9925;DHT22;5001;51.674;7.868;2023-10-08T14:45:12;16.20;99.90
9925;DHT22;5001;51.674;7.868;2023-10-08T14:47:40;16.60;99.90
9925;DHT22;5001;51.674;7.868;2023-10-08T14:50:08;16.70;99.90
9925;DHT22;5001;51.674;7.868;2023-10-08T14:52:44;16.60;99.90
9925;DHT22;5001;51.674;7.868;2023-10-08T14:55:11;16.20;99.90
9925;DHT22;5001;51.674;7.868;2023-10-08T14:57:42;16.00;99.90
9925;DHT22;5001;51.674;7.868;2023-10-08T15:00:10;16.00;99.90
9925;DHT22;5001;51.674;7.868;2023-10-08T15:02:38;15.90;99.90
9925;DHT22;5001;51.674;7.868;2023-10-08T15:05:06;15.90;99.90
9925;DHT22;5001;51.674;7.868;2023-10-08T15:07:34;15.90;99.90
9925;DHT22;5001;51.674;7.868;2023-10-08T15:10:03;15.80;99.90
9925;DHT22;5001;51.674;7.868;2023-10-08T15:12:32;16.00;99.90
9925;DHT22;5001;51.674;7.868;2023-10-08T15:15:02;15.80;99.90
9925;DHT22;5001;51.674;7.868;2023-10-08T15:20:10;16.00;99.90
9925;DHT22;5001;51.674;7.868;2023-10-08T15:22:45;16.00;99.90
9925;DHT22;5001;51.674;7.868;2023-10-08T15:25:14;15.90;99.90
9925;DHT22;5001;51.674;7.868;2023-10-08T15:27:44;16.10;99.90
9925;DHT22;5001;51.674;7.868;2023-10-08T15:30:17;16.00;99.90
9925;DHT22;5001;51.674;7.868;2023-10-08T15:32:49;16.10;99.90
9925;DHT22;5001;51.674;7.868;2023-10-08T15:35:18;16.20;99.90
9925;DHT22;5001;51.674;7.868;2023-10-08T15:37:52;16.00;99.90
9925;DHT22;5001;51.674;7.868;2023-10-08T15:40:19;15.80;99.90
9925;DHT22;5001;51.674;7.868;2023-10-08T15:42:50;15.60;99.90
9925;DHT22;5001;51.674;7.868;2023-10-08T15:45:19;15.60;99.90
9925;DHT22;5001;51.674;7.868;2023-10-08T15:47:48;15.60;99.90
9925;DHT22;5001;51.674;7.868;2023-10-08T15:50:18;15.50;99.90
9925;DHT22;5001;51.674;7.868;2023-10-08T15:52:53;15.80;99.90
9925;DHT22;5001;51.674;7.868;2023-10-08T15:55:22;16.00;99.90
9925;DHT22;5001;51.674;7.868;2023-10-08T15:57:51;15.80;99.90
9925;DHT22;5001;51.674;7.868;2023-10-08T16:00:18;15.90;99.90
9925;DHT22;5001;51.674;7.868;2023-10-08T16:02:46;15.90;99.90
9925;DHT22;5001;51.674;7.868;2023-10-08T16:05:15;15.60;99.90
9925;DHT22;5001;51.674;7.868;2023-10-08T16:07:44;15.50;99.90
9925;DHT22;5001;51.674;7.868;2023-10-08T16:10:11;15.30;99.90
9925;DHT22;5001;51.674;7.868;2023-10-08T16:12:38;15.10;99.90
9925;DHT22;5001;51.674;7.868;2023-10-08T16:15:06;15.10;99.90
9925;DHT22;5001;51.674;7.868;2023-10-08T16:17:33;15.10;99.90
9925;DHT22;5001;51.674;7.868;2023-10-08T16:20:02;15.10;99.90
9925;DHT22;5001;51.674;7.868;2023-10-08T16:22:41;15.30;99.90
9925;DHT22;5001;51.674;7.868;2023-10-08T16:25:09;15.40;99.90
9925;DHT22;5001;51.674;7.868;2023-10-08T16:27:43;15.40;99.90
9925;DHT22;5001;51.674;7.868;2023-10-08T16:30:20;15.30;99.90
9925;DHT22;5001;51.674;7.868;2023-10-08T16:32:56;15.20;99.90
9925;DHT22;5001;51.674;7.868;2023-10-08T16:35:24;15.10;99.90
9925;DHT22;5001;51.674;7.868;2023-10-08T16:38:01;15.10;99.90
9925;DHT22;5001;51.674;7.868;2023-10-08T16:40:30;15.10;99.90
9925;DHT22;5001;51.674;7.868;2023-10-08T16:42:57;15.10;99.90
9925;DHT22;5001;51.674;7.868;2023-10-08T16:45:24;15.00;99.90
9925;DHT22;5001;51.674;7.868;2023-10-08T16:47:51;15.00;99.90